Time;durP1;ratioP1;P1;durP2;ratioP2;P2;SDS_P1;SDS_P2;PMS_P1;PMS_P2;Temp;Humidity;BMP_temperature;BMP_pressure;BME280_temperature;BME280_humidity;BME280_pressure;Samples;Min_cycle;Max_cycle;Signal;HPM_P1;HPM_P2
2023/03/08 00:01:15;;;;;;;14.17;9.17;;;;;;;5.85;87.23;99029.92;1403294;92;21522;-80
2023/03/08 00:03:42;;;;;;;14.83;10.17;;;;;;;5.87;87.31;99021.41;1418856;92;21455;-80
2023/03/08 00:06:13;;;;;;;20.33;12.00;;;;;;;5.87;87.67;99018.79;1425641;92;21557;-79
2023/03/08 00:08:40;;;;;;;17.03;10.73;;;;;;;5.88;87.28;99006.80;1425808;92;21507;-80
2023/03/08 00:11:08;;;;;;;17.60;12.27;;;;;;;5.88;88.02;99004.17;1417034;92;21500;-80
2023/03/08 00:13:35;;;;;;;13.53;9.97;;;;;;;5.86;87.36;98998.24;1412714;92;21374;-80
2023/03/08 00:16:05;;;;;;;14.97;9.43;;;;;;;5.88;87.09;98992.85;1423437;92;21455;-80
2023/03/08 00:18:32;;;;;;;14.53;9.67;;;;;;;5.89;88.21;98991.86;1415183;92;21559;-81
2023/03/08 00:21:09;;;;;;;15.27;9.23;;;;;;;5.91;88.32;98990.41;1422433;92;21402;-80
2023/03/08 00:23:35;;;;;;;12.30;9.00;;;;;;;5.94;88.72;98992.27;1427176;92;22277;-80
2023/03/08 00:26:02;;;;;;;12.73;9.30;;;;;;;5.98;88.36;98995.41;1424124;92;21581;-81
2023/03/08 00:28:29;;;;;;;13.90;9.30;;;;;;;5.99;87.54;98989.20;1412367;91;21418;-80
2023/03/08 00:31:00;;;;;;;16.40;11.10;;;;;;;5.98;87.49;98982.28;1404451;92;22419;-79
2023/03/08 00:33:28;;;;;;;12.65;9.60;;;;;;;5.91;87.89;98984.67;1399512;93;21496;-79
2023/03/08 00:35:59;;;;;;;15.93;9.60;;;;;;;5.85;87.41;98979.53;1412852;93;21628;-79
2023/03/08 00:38:25;;;;;;;12.70;9.83;;;;;;;5.79;88.39;98984.09;1415053;92;21466;-78
2023/03/08 00:40:52;;;;;;;15.40;9.70;;;;;;;5.74;88.81;98978.47;1403410;92;21577;-78
2023/03/08 00:43:18;;;;;;;14.67;9.60;;;;;;;5.71;88.72;98972.70;1406870;92;21518;-78
2023/03/08 00:45:45;;;;;;;13.33;9.23;;;;;;;5.66;88.99;98972.65;1407456;92;21458;-79
2023/03/08 00:48:11;;;;;;;14.00;10.20;;;;;;;5.60;90.11;98958.82;1404375;93;21718;-78
2023/03/08 00:50:38;;;;;;;18.63;10.90;;;;;;;5.54;89.95;98958.61;1411030;92;21333;-78
2023/03/08 00:53:04;;;;;;;14.50;10.63;;;;;;;5.50;90.02;98963.84;1413329;92;21407;-79
2023/03/08 00:55:31;;;;;;;13.90;11.13;;;;;;;5.48;89.54;98961.84;1415488;93;22295;-78
2023/03/08 00:57:57;;;;;;;12.40;9.03;;;;;;;5.42;89.97;98948.34;1410635;93;21497;-79
2023/03/08 01:00:23;;;;;;;14.50;8.53;;;;;;;5.38;90.70;98950.95;1404250;93;22177;-79
2023/03/08 01:02:50;;;;;;;12.30;9.33;;;;;;;5.38;90.70;98950.95;1412173;92;21430;-78
2023/03/08 01:05:16;;;;;;;17.60;10.17;;;;;;;5.36;89.43;98955.52;1402557;92;22258;-79
2023/03/08 01:07:42;;;;;;;18.77;10.77;;;;;;;5.31;89.11;98953.81;1410200;92;21542;-79
2023/03/08 01:10:10;;;;;;;15.33;10.20;;;;;;;5.24;89.62;98956.72;1412852;92;22169;-79
2023/03/08 01:12:36;;;;;;;16.30;9.13;;;;;;;5.16;90.62;98956.63;1406993;93;22293;-79
2023/03/08 01:15:04;;;;;;;15.67;11.00;;;;;;;5.11;90.99;98965.42;1410425;92;22172;-79
2023/03/08 01:17:31;;;;;;;12.73;9.37;;;;;;;5.09;90.82;98969.98;1408917;92;23269;-79
2023/03/08 01:19:57;;;;;;;14.00;9.73;;;;;;;5.08;90.75;98970.97;1407132;92;21414;-78
2023/03/08 01:22:24;;;;;;;16.87;10.70;;;;;;;5.09;89.73;98977.85;1411308;92;22040;-79
2023/03/08 01:24:52;;;;;;;13.50;9.63;;;;;;;5.08;89.11;98976.21;1403791;92;22440;-78
2023/03/08 01:27:18;;;;;;;15.57;9.37;;;;;;;5.03;88.95;98979.27;1409134;92;22327;-78
2023/03/08 01:29:44;;;;;;;19.27;11.10;;;;;;;4.98;88.09;98973.17;1404881;92;22175;-78
2023/03/08 01:32:11;;;;;;;18.87;12.03;;;;;;;4.92;88.04;98968.52;1408626;92;22192;-78
2023/03/08 01:34:38;;;;;;;22.00;12.70;;;;;;;4.90;88.15;98962.59;1406712;92;22185;-78
2023/03/08 01:37:05;;;;;;;18.80;12.13;;;;;;;4.88;87.98;98964.52;1408139;93;22759;-78
2023/03/08 01:39:31;;;;;;;22.80;12.27;;;;;;;4.86;88.13;98965.17;1407704;93;22257;-79
2023/03/08 01:41:57;;;;;;;20.40;12.07;;;;;;;4.84;88.10;98963.67;1406888;93;22111;-79
2023/03/08 01:44:24;;;;;;;25.43;13.77;;;;;;;4.81;87.87;98964.78;1413352;93;22939;-78
2023/03/08 01:46:51;;;;;;;24.97;14.23;;;;;;;4.79;87.64;98960.66;1414404;92;22133;-78
2023/03/08 01:49:30;;;;;;;22.33;13.67;;;;;;;4.73;87.28;98964.69;1411811;93;22061;-78
2023/03/08 01:52:08;;;;;;;19.90;12.57;;;;;;;4.66;87.55;98967.08;1426541;89;22008;-78
2023/03/08 01:54:46;;;;;;;65.07;27.43;;;;;;;4.58;87.47;98963.04;1436026;91;22302;-78
2023/03/08 01:57:32;;;;;;;106.77;42.33;;;;;;;4.48;87.55;98963.55;1431025;91;23092;-78
2023/03/08 02:00:13;;;;;;;120.53;44.03;;;;;;;4.44;88.21;98968.27;1430112;91;22262;-78
2023/03/08 02:02:54;;;;;;;83.10;35.30;;;;;;;4.38;88.55;98967.53;1433250;90;22178;-78
2023/03/08 02:05:21;;;;;;;49.38;21.90;;;;;;;4.33;88.21;98963.20;1428891;90;21458;-78
2023/03/08 02:07:47;;;;;;;31.17;16.63;;;;;;;4.30;88.36;98964.80;1429238;91;21444;-79
2023/03/08 02:10:14;;;;;;;26.53;14.73;;;;;;;4.16;89.67;98966.08;1424749;91;22310;-79
2023/03/08 02:12:41;;;;;;;21.47;13.23;;;;;;;4.16;89.67;98966.08;1431602;91;22507;-79
2023/03/08 02:15:11;;;;;;;18.07;11.77;;;;;;;4.10;89.18;98964.52;1434749;91;21817;-79
2023/03/08 02:17:40;;;;;;;16.73;12.43;;;;;;;4.04;90.66;98964.11;1431256;91;22081;-78
2023/03/08 02:20:23;;;;;;;18.27;11.47;;;;;;;4.02;92.57;98962.11;1428719;91;22007;-79
2023/03/08 02:22:52;;;;;;;16.90;11.47;;;;;;;3.98;94.19;98964.68;1424510;91;21873;-78
2023/03/08 02:25:22;;;;;;;18.10;11.43;;;;;;;3.98;94.19;98964.68;1428806;91;22077;-79
2023/03/08 02:27:50;;;;;;;22.87;13.20;;;;;;;3.96;94.55;98963.98;1430117;91;22686;-79
2023/03/08 02:30:27;;;;;;;16.63;12.80;;;;;;;3.93;94.65;98969.99;1429448;91;22391;-79
2023/03/08 02:32:53;;;;;;;16.37;11.27;;;;;;;3.90;95.36;98972.41;1462143;88;22136;-78
2023/03/08 02:35:20;;;;;;;18.43;12.13;;;;;;;3.82;96.40;98956.58;1476852;88;22094;-78
2023/03/08 02:37:46;;;;;;;16.67;12.30;;;;;;;3.82;97.93;98968.35;1478683;88;21997;-78
2023/03/08 02:40:13;;;;;;;24.37;12.90;;;;;;;3.82;97.93;98968.35;1472191;88;21990;-77
2023/03/08 02:42:40;;;;;;;17.27;12.00;;;;;;;3.81;99.21;98974.56;1477906;88;21887;-78
2023/03/08 02:45:08;;;;;;;19.73;12.40;;;;;;;3.79;99.42;98976.00;1467488;88;21836;-79
2023/03/08 02:47:36;;;;;;;25.27;14.77;;;;;;;3.74;99.91;98973.00;1475114;88;22113;-79
2023/03/08 02:50:03;;;;;;;21.47;14.63;;;;;;;3.74;99.91;98973.00;1474454;88;22861;-78
2023/03/08 02:52:29;;;;;;;22.10;14.93;;;;;;;3.74;100.00;98976.07;1474818;88;21909;-79
2023/03/08 02:54:55;;;;;;;23.03;15.23;;;;;;;3.72;100.00;98980.15;1466462;88;21845;-79
2023/03/08 02:57:21;;;;;;;26.53;15.67;;;;;;;3.75;99.72;98977.74;1474763;88;22143;-79
2023/03/08 02:59:48;;;;;;;22.97;13.97;;;;;;;3.74;100.00;98966.91;1466224;87;21930;-79
2023/03/08 03:02:14;;;;;;;15.67;10.93;;;;;;;3.74;100.00;98961.67;1470108;88;22102;-79
2023/03/08 03:04:40;;;;;;;19.73;12.20;;;;;;;3.74;100.00;98961.67;1469323;88;22123;-80
2023/03/08 03:07:06;;;;;;;18.43;13.13;;;;;;;3.73;100.00;98957.42;1469286;88;23040;-79
2023/03/08 03:09:35;;;;;;;20.67;13.40;;;;;;;3.73;100.00;98957.42;1474255;88;21844;-79
2023/03/08 03:12:01;;;;;;;21.97;14.67;;;;;;;3.71;100.00;98946.26;1468602;88;22305;-79
2023/03/08 03:14:28;;;;;;;18.93;13.73;;;;;;;3.70;100.00;98947.23;1474798;88;21810;-79
2023/03/08 03:16:55;;;;;;;19.83;12.83;;;;;;;3.68;100.00;98944.74;1474019;88;22897;-79
2023/03/08 03:19:21;;;;;;;17.53;12.70;;;;;;;3.70;100.00;98948.05;1478386;88;21880;-78
2023/03/08 03:21:47;;;;;;;18.80;12.60;;;;;;;3.70;100.00;98948.05;1480470;88;23199;-79
2023/03/08 03:24:13;;;;;;;24.13;14.10;;;;;;;3.68;100.00;98959.63;1481901;87;21899;-78
2023/03/08 03:26:40;;;;;;;19.60;13.27;;;;;;;3.68;100.00;98959.63;1470881;88;22005;-77
2023/03/08 03:29:06;;;;;;;19.13;12.77;;;;;;;3.64;100.00;98984.42;1479875;88;21831;-78
2023/03/08 03:31:33;;;;;;;20.03;13.07;;;;;;;3.56;100.00;98978.08;1477402;88;22848;-77
2023/03/08 03:33:59;;;;;;;18.60;13.77;;;;;;;3.60;100.00;98979.96;1477236;88;22943;-77
2023/03/08 03:36:26;;;;;;;22.27;12.77;;;;;;;3.59;100.00;98973.88;1477584;88;21858;-79
2023/03/08 03:38:52;;;;;;;21.10;13.57;;;;;;;3.55;100.00;98973.00;1481570;88;21925;-79
2023/03/08 03:41:21;;;;;;;24.30;13.70;;;;;;;3.55;100.00;98973.00;1474424;88;21874;-79
2023/03/08 03:43:48;;;;;;;20.73;14.50;;;;;;;3.58;100.00;98983.03;1487507;88;21955;-79
2023/03/08 03:46:19;;;;;;;18.30;13.83;;;;;;;3.56;100.00;98985.11;1473454;88;22110;-79
2023/03/08 03:48:45;;;;;;;23.10;14.65;;;;;;;3.56;100.00;98985.11;1475804;88;22070;-79
2023/03/08 03:51:19;;;;;;;21.63;15.53;;;;;;;3.59;100.00;99001.34;1468417;88;21421;-79
2023/03/08 03:53:47;;;;;;;22.53;15.87;;;;;;;3.63;100.00;99004.53;1479341;88;22706;-79
2023/03/08 03:56:21;;;;;;;21.87;15.67;;;;;;;3.65;100.00;99001.77;1480325;88;22391;-79
2023/03/08 03:58:48;;;;;;;23.87;14.03;;;;;;;3.68;100.00;99008.03;1474016;88;22842;-78
2023/03/08 04:01:26;;;;;;;17.73;12.50;;;;;;;3.72;100.00;99013.34;1477521;88;21852;-79
2023/03/08 04:03:52;;;;;;;33.60;16.27;;;;;;;3.71;100.00;99009.06;1483817;88;21841;-79
2023/03/08 04:06:29;;;;;;;23.00;14.70;;;;;;;3.71;100.00;99009.06;1477953;88;22864;-79
2023/03/08 04:08:59;;;;;;;26.40;16.47;;;;;;;3.67;100.00;98994.61;1481754;88;21939;-80
2023/03/08 04:11:30;;;;;;;25.95;16.52;;;;;;;3.67;100.00;98994.61;1476534;88;22087;-79
2023/03/08 04:13:57;;;;;;;28.42;16.67;;;;;;;3.71;100.00;99003.83;1479428;88;21487;-80
2023/03/08 04:16:33;;;;;;;27.10;16.70;;;;;;;3.70;100.00;98994.34;1472809;88;21789;-80
2023/03/08 04:19:03;;;;;;;25.73;16.60;;;;;;;3.70;100.00;98994.34;1474349;88;21936;-80
2023/03/08 04:21:30;;;;;;;25.30;14.63;;;;;;;3.68;100.00;99005.41;1472293;88;22337;-79
2023/03/08 04:23:57;;;;;;;22.00;15.73;;;;;;;3.70;100.00;99002.19;1469540;88;22775;-79
2023/03/08 04:26:24;;;;;;;23.03;16.40;;;;;;;3.68;100.00;99000.18;1478181;88;22169;-79
2023/03/08 04:28:51;;;;;;;24.20;16.43;;;;;;;3.68;100.00;99004.11;1472134;88;22890;-79
2023/03/08 04:31:28;;;;;;;25.90;16.03;;;;;;;3.66;100.00;99009.98;1476753;88;22295;-79
2023/03/08 04:33:55;;;;;;;26.87;18.33;;;;;;;3.67;100.00;99015.06;1479290;88;23097;-77
2023/03/08 04:36:21;;;;;;;25.17;15.83;;;;;;;3.64;100.00;99011.90;1479762;88;22010;-78
2023/03/08 04:38:48;;;;;;;22.43;15.70;;;;;;;3.60;100.00;99006.94;1464956;88;22080;-77
2023/03/08 04:41:15;;;;;;;24.40;16.70;;;;;;;3.61;100.00;99003.84;1475017;88;21770;-78
2023/03/08 04:43:54;;;;;;;28.80;17.60;;;;;;;3.61;100.00;99007.28;1478203;88;21988;-79
2023/03/08 04:46:27;;;;;;;26.87;16.57;;;;;;;3.64;100.00;99020.57;1471897;88;22025;-79
2023/03/08 04:48:54;;;;;;;24.57;16.37;;;;;;;3.67;100.00;99015.55;1467385;88;21893;-79
2023/03/08 04:51:24;;;;;;;27.23;19.17;;;;;;;3.64;100.00;99021.06;1483335;88;21964;-82
2023/03/08 04:53:50;;;;;;;27.10;19.70;;;;;;;3.64;100.00;99021.06;1469184;88;21806;-80
2023/03/08 04:56:17;;;;;;;26.70;18.80;;;;;;;3.63;100.00;99035.94;1474524;88;21916;-80
2023/03/08 04:58:45;;;;;;;28.80;18.00;;;;;;;3.63;100.00;99035.94;1473652;88;22858;-79
2023/03/08 05:01:15;;;;;;;29.50;19.13;;;;;;;3.64;100.00;99038.89;1480955;88;21934;-78
2023/03/08 05:03:43;;;;;;;29.98;18.25;;;;;;;3.64;100.00;99038.89;1475676;88;22480;-80
2023/03/08 05:06:11;;;;;;;27.03;18.50;;;;;;;3.70;100.00;99039.64;1476112;88;21605;-80
2023/03/08 05:08:37;;;;;;;26.67;18.77;;;;;;;3.70;100.00;99039.64;1479989;88;21852;-81
2023/03/08 05:11:04;;;;;;;28.93;20.43;;;;;;;3.72;100.00;99048.19;1477287;88;22061;-81
2023/03/08 05:13:35;;;;;;;30.47;20.40;;;;;;;3.72;100.00;99048.19;1479294;88;22119;-83
2023/03/08 05:16:04;;;;;;;34.08;23.92;;;;;;;3.72;100.00;99052.60;1477546;88;21914;-84
2023/03/08 05:18:36;;;;;;;39.43;21.93;;;;;;;3.72;100.00;99048.67;1480329;88;22388;-82
2023/03/08 05:21:07;;;;;;;35.80;21.87;;;;;;;3.73;100.00;99046.39;1481765;88;22199;-84
2023/03/08 05:23:33;;;;;;;33.00;21.68;;;;;;;3.73;100.00;99046.39;1477711;88;22021;-83
2023/03/08 05:26:02;;;;;;;29.33;20.00;;;;;;;3.81;100.00;99057.00;1484345;88;21532;-84
2023/03/08 05:28:31;;;;;;;31.97;21.80;;;;;;;3.82;100.00;99049.48;1475790;88;21915;-83
2023/03/08 05:31:08;;;;;;;34.00;23.17;;;;;;;3.90;100.00;99056.66;1475003;88;22070;-82
2023/03/08 05:33:37;;;;;;;42.07;26.93;;;;;;;3.94;100.00;99045.78;1477093;88;23187;-85
2023/03/08 05:36:05;;;;;;;41.27;27.30;;;;;;;3.94;100.00;99045.78;1474613;88;22114;-85
2023/03/08 05:38:32;;;;;;;42.93;25.87;;;;;;;3.95;100.00;99059.20;1473991;88;23111;-84
2023/03/08 05:41:08;;;;;;;39.37;24.37;;;;;;;3.98;100.00;99055.48;1474241;88;23061;-84
2023/03/08 05:43:34;;;;;;;40.23;25.00;;;;;;;3.98;100.00;99055.48;1475642;88;22266;-84
2023/03/08 05:46:08;;;;;;;40.77;26.23;;;;;;;4.08;100.00;99060.21;1472709;88;22095;-85
2023/03/08 05:48:35;;;;;;;40.13;22.27;;;;;;;4.07;100.00;99047.61;1479202;88;22138;-84
2023/03/08 05:51:12;;;;;;;41.93;25.70;;;;;;;4.17;100.00;99053.31;1480557;88;22110;-84
2023/03/08 05:53:38;;;;;;;37.43;23.23;;;;;;;4.21;100.00;99066.00;1476155;88;22160;-84
2023/03/08 05:56:19;;;;;;;35.73;23.07;;;;;;;4.26;100.00;99068.20;1473916;88;22190;-83
2023/03/08 05:58:45;;;;;;;32.93;21.82;;;;;;;4.26;100.00;99071.64;1487672;88;22101;-84
2023/03/08 06:01:16;;;;;;;39.07;23.53;;;;;;;4.33;100.00;99080.25;1479727;88;21404;-84
2023/03/08 06:03:50;;;;;;;38.02;21.12;;;;;;;4.35;100.00;99083.56;1476927;88;22074;-84
2023/03/08 06:06:19;;;;;;;43.40;26.20;;;;;;;4.40;100.00;99082.17;1476266;88;21397;-84
2023/03/08 06:08:46;;;;;;;41.73;27.07;;;;;;;4.44;100.00;99084.84;1467013;88;23172;-85
2023/03/08 06:11:13;;;;;;;47.97;29.43;;;;;;;4.47;100.00;99087.67;1477708;88;22160;-84
2023/03/08 06:13:40;;;;;;;38.87;22.43;;;;;;;4.50;100.00;99090.83;1481621;88;22105;-84
2023/03/08 06:16:08;;;;;;;37.83;22.77;;;;;;;4.53;100.00;99087.92;1475266;88;23209;-81
2023/03/08 06:18:39;;;;;;;34.97;22.27;;;;;;;4.59;100.00;99100.94;1482795;88;22623;-84
2023/03/08 06:21:11;;;;;;;33.07;22.10;;;;;;;4.64;100.00;99095.29;1473592;88;21554;-84
2023/03/08 06:23:38;;;;;;;34.93;23.70;;;;;;;4.69;100.00;99086.48;1478286;88;22028;-84
2023/03/08 06:26:06;;;;;;;36.40;23.50;;;;;;;4.73;100.00;99074.77;1474828;88;22036;-85
2023/03/08 06:28:33;;;;;;;42.07;23.90;;;;;;;4.74;100.00;99073.78;1472118;88;21589;-86
2023/03/08 06:31:00;;;;;;;29.37;20.43;;;;;;;4.79;100.00;99079.43;1473337;88;22184;-86
2023/03/08 06:33:30;;;;;;;32.93;21.40;;;;;;;4.79;100.00;99082.05;1481513;88;21375;-87
2023/03/08 06:36:15;;;;;;;33.57;21.50;;;;;;;4.84;100.00;99087.70;1477200;88;21423;-85
2023/03/08 06:38:42;;;;;;;35.13;21.20;;;;;;;4.86;100.00;99094.09;1481882;88;21442;-82
2023/03/08 06:41:11;;;;;;;32.37;20.93;;;;;;;4.86;100.00;99094.09;1475820;88;22331;-82
2023/03/08 06:43:37;;;;;;;35.10;24.23;;;;;;;4.95;99.20;99098.01;1475750;88;22270;-82
2023/03/08 06:46:08;;;;;;;38.93;23.90;;;;;;;5.02;98.92;99096.12;1469140;88;21442;-81
2023/03/08 06:48:35;;;;;;;;;;;;;;;5.02;98.92;99096.12;1476500;88;21384;-81
2023/03/08 06:51:03;;;;;;;42.20;22.50;;;;;;;5.16;98.73;99109.58;1467477;88;20818;-81
2023/03/08 06:53:29;;;;;;;35.23;22.70;;;;;;;5.16;98.73;99118.05;1475371;88;22241;-84
2023/03/08 06:55:56;;;;;;;34.37;23.13;;;;;;;5.24;98.02;99118.05;1468472;88;21901;-80
2023/03/08 06:58:23;;;;;;;33.83;21.80;;;;;;;5.36;97.55;99122.11;1478806;88;21891;-81
2023/03/08 07:00:49;;;;;;;40.37;23.53;;;;;;;5.43;97.00;99124.97;1478492;88;22429;-80
2023/03/08 07:03:15;;;;;;;32.50;21.53;;;;;;;5.46;96.22;99132.55;1480005;88;21391;-81
2023/03/08 07:05:42;;;;;;;35.00;22.23;;;;;;;5.53;96.36;99140.69;1473097;88;21420;-82
2023/03/08 07:08:08;;;;;;;38.70;24.87;;;;;;;5.62;95.92;99150.30;1474854;88;21648;-80
2023/03/08 07:10:34;;;;;;;37.40;24.63;;;;;;;5.68;95.37;99156.76;1474689;88;21391;-81
2023/03/08 07:13:01;;;;;;;36.03;21.83;;;;;;;5.74;94.60;99153.05;1477763;88;21450;-82
2023/03/08 07:15:27;;;;;;;33.93;23.10;;;;;;;5.80;94.30;99160.33;1477665;88;22314;-82
2023/03/08 07:17:56;;;;;;;41.50;23.43;;;;;;;5.85;93.67;99167.77;1479214;88;21480;-81
2023/03/08 07:20:25;;;;;;;35.10;22.30;;;;;;;5.95;93.65;99179.55;1403747;88;22272;-82
2023/03/08 07:22:51;;;;;;;34.33;19.67;;;;;;;6.03;92.27;99183.58;1397784;88;21399;-81
2023/03/08 07:25:19;;;;;;;33.40;21.00;;;;;;;6.17;91.82;99189.62;1400675;88;22263;-81
2023/03/08 07:27:46;;;;;;;33.80;22.33;;;;;;;6.27;91.49;99194.80;1398589;88;21422;-82
2023/03/08 07:30:14;;;;;;;34.67;21.47;;;;;;;6.38;90.59;99197.70;1387763;89;22116;-82
2023/03/08 07:32:41;;;;;;;38.80;23.83;;;;;;;6.45;89.72;99211.41;1398458;88;21354;-82
2023/03/08 07:35:10;;;;;;;35.97;25.30;;;;;;;6.50;89.95;99201.73;1399569;88;21310;-81
2023/03/08 07:37:37;;;;;;;31.63;21.90;;;;;;;6.57;89.57;99196.23;1397943;88;21443;-82
2023/03/08 07:40:04;;;;;;;39.53;24.30;;;;;;;6.60;87.89;99210.38;1557377;88;21263;-81
2023/03/08 07:42:31;;;;;;;36.03;23.23;;;;;;;6.64;86.68;99201.69;1398785;88;21281;-82
2023/03/08 07:44:57;;;;;;;36.40;21.93;;;;;;;6.67;86.61;99212.72;1401142;88;21391;-82
2023/03/08 07:47:23;;;;;;;47.47;23.63;;;;;;;6.66;84.79;99217.66;1400702;88;21325;-83
2023/03/08 07:49:49;;;;;;;32.27;20.03;;;;;;;6.69;83.82;99223.92;1401122;88;21325;-82
2023/03/08 07:52:15;;;;;;;35.27;20.97;;;;;;;6.76;84.36;99226.30;1400689;88;22057;-80
2023/03/08 07:54:42;;;;;;;34.17;22.87;;;;;;;6.80;83.29;99229.94;1401339;88;21228;-81
2023/03/08 07:57:15;;;;;;;29.17;21.00;;;;;;;6.78;80.90;99219.55;1400271;88;21229;-82
2023/03/08 07:59:41;;;;;;;33.40;22.60;;;;;;;6.81;80.30;99234.20;1378574;89;21435;-81
2023/03/08 08:02:12;;;;;;;33.37;20.40;;;;;;;6.76;80.30;99242.54;1387957;89;21281;-81
2023/03/08 08:04:38;;;;;;;30.17;18.62;;;;;;;6.77;80.70;99240.27;1396358;88;21206;-83
2023/03/08 08:07:05;;;;;;;29.73;18.80;;;;;;;6.71;78.76;99243.02;1399879;88;21398;-82
2023/03/08 08:09:32;;;;;;;36.30;20.17;;;;;;;6.70;78.55;99251.89;1400666;88;21295;-82
2023/03/08 08:11:58;;;;;;;41.70;20.17;;;;;;;6.75;78.27;99254.05;1399966;88;21258;-82
2023/03/08 08:14:25;;;;;;;28.27;19.17;;;;;;;6.73;77.92;99255.53;1400967;88;21333;-84
2023/03/08 08:16:51;;;;;;;24.73;16.90;;;;;;;6.72;76.82;99256.48;1400494;88;21421;-82
2023/03/08 08:19:17;;;;;;;27.83;16.83;;;;;;;6.73;76.04;99253.36;1401321;88;21273;-83
2023/03/08 08:21:44;;;;;;;33.80;22.40;;;;;;;6.77;76.39;99260.81;1531582;88;22256;-83
2023/03/08 08:24:11;;;;;;;34.50;22.37;;;;;;;6.82;76.51;99260.83;1405378;88;21287;-82
2023/03/08 08:26:38;;;;;;;31.53;19.63;;;;;;;6.87;76.28;99263.34;1400749;88;21272;-83
2023/03/08 08:29:04;;;;;;;29.17;19.87;;;;;;;6.92;74.84;99261.58;1403892;88;21503;-81
2023/03/08 08:31:31;;;;;;;30.63;18.77;;;;;;;6.97;74.83;99265.91;1400609;88;21199;-79
2023/03/08 08:33:58;;;;;;;32.33;20.70;;;;;;;7.08;74.91;99261.72;1404636;88;22250;-82
2023/03/08 08:36:24;;;;;;;29.67;19.80;;;;;;;7.19;74.43;99266.73;1403852;88;21280;-82
2023/03/08 08:38:51;;;;;;;29.10;19.97;;;;;;;7.24;73.79;99266.25;1400154;88;22168;-82
2023/03/08 08:41:19;;;;;;;28.93;19.97;;;;;;;7.29;72.47;99268.43;1400785;88;21472;-80
2023/03/08 08:43:47;;;;;;;30.33;19.87;;;;;;;7.36;73.01;99262.87;1403689;88;21295;-82
2023/03/08 08:46:17;;;;;;;27.07;17.17;;;;;;;7.43;71.19;99270.00;1400729;88;21487;-80
2023/03/08 08:48:43;;;;;;;31.17;18.63;;;;;;;7.54;71.00;99279.45;1476131;88;21571;-83
2023/03/08 08:51:12;;;;;;;27.17;19.23;;;;;;;7.60;69.95;99281.95;1477452;88;21948;-82
2023/03/08 08:53:39;;;;;;;27.73;16.93;;;;;;;7.71;70.60;99277.73;1479921;88;21942;-82
2023/03/08 08:56:18;;;;;;;26.60;17.47;;;;;;;7.82;70.10;99272.16;1482303;88;21435;-83
2023/03/08 08:58:46;;;;;;;25.80;17.80;;;;;;;7.92;70.15;99278.64;1476123;88;21383;-82
2023/03/08 09:01:21;;;;;;;23.60;17.00;;;;;;;8.03;69.78;99288.89;1476058;88;21501;-84
2023/03/08 09:03:47;;;;;;;24.23;15.97;;;;;;;8.01;65.99;99288.22;1475930;88;22305;-83
2023/03/08 09:06:16;;;;;;;28.03;17.80;;;;;;;7.96;66.41;99294.45;1477716;88;21383;-82
2023/03/08 09:08:43;;;;;;;23.77;15.47;;;;;;;7.96;65.91;99295.77;1398080;88;21309;-82
2023/03/08 09:11:10;;;;;;;20.93;13.63;;;;;;;7.96;65.31;99303.67;1400100;88;22109;-83
2023/03/08 09:13:39;;;;;;;25.27;15.83;;;;;;;8.01;64.68;99300.08;1406586;88;21369;-82
2023/03/08 09:16:05;;;;;;;23.57;15.10;;;;;;;8.26;66.53;99292.27;1559906;88;21314;-81
2023/03/08 09:18:32;;;;;;;24.77;14.23;;;;;;;8.54;64.87;99287.56;1400017;88;21243;-81
2023/03/08 09:21:01;;;;;;;21.47;14.63;;;;;;;8.64;61.20;99291.39;1406488;88;21399;-83
2023/03/08 09:23:27;;;;;;;23.03;14.83;;;;;;;8.90;62.42;99293.39;1403637;88;21295;-79
2023/03/08 09:25:57;;;;;;;18.27;12.63;;;;;;;9.20;60.35;99302.44;1400350;88;22332;-83
2023/03/08 09:28:23;;;;;;;21.23;13.93;;;;;;;9.60;61.08;99299.92;1396001;88;21553;-82
2023/03/08 09:30:49;;;;;;;15.30;11.10;;;;;;;9.82;58.33;99299.20;1400893;88;22161;-83
2023/03/08 09:33:16;;;;;;;21.07;13.03;;;;;;;9.83;54.74;99307.95;1406965;88;21309;-84
2023/03/08 09:35:42;;;;;;;17.77;11.33;;;;;;;9.75;56.16;99301.36;1400514;88;21228;-82
2023/03/08 09:38:08;;;;;;;21.20;14.20;;;;;;;9.73;57.04;99294.13;1400799;88;22092;-80
2023/03/08 09:40:40;;;;;;;19.67;12.40;;;;;;;9.68;53.89;99293.30;1425117;88;21426;-81
2023/03/08 09:43:12;;;;;;;22.43;12.53;;;;;;;9.75;57.00;99290.28;1477473;88;21926;-80
2023/03/08 09:45:38;;;;;;;16.57;10.00;;;;;;;9.86;54.52;99279.35;1475914;88;21391;-83
2023/03/08 09:48:15;;;;;;;16.93;10.93;;;;;;;10.07;55.39;99292.02;1477429;88;21645;-84
2023/03/08 09:50:52;;;;;;;13.53;9.63;;;;;;;10.08;52.56;99291.00;1470163;88;22285;-82
2023/03/08 09:53:50;;;;;;;13.83;8.47;;;;;;;10.07;52.71;99284.55;1477886;88;21835;-81
2023/03/08 09:56:33;;;;;;;15.30;10.63;;;;;;;10.01;51.22;99288.73;1467989;88;22382;-84
2023/03/08 09:59:21;;;;;;;18.53;10.50;;;;;;;9.91;49.73;99285.46;1468495;88;21479;-84
2023/03/08 10:02:03;;;;;;;14.87;9.90;;;;;;;9.88;51.36;99303.80;1476551;88;21465;-86
2023/03/08 10:05:02;;;;;;;15.07;9.27;;;;;;;9.85;49.57;99298.86;1499857;86;21516;-83
2023/03/08 10:08:23;;;;;;;17.03;9.77;;;;;;;9.92;50.90;99290.56;1478109;88;21545;-86
2023/03/08 10:11:13;;;;;;;18.47;10.10;;;;;;;9.98;49.63;99277.66;1476632;88;21361;-86
2023/03/08 10:13:44;;;;;;;12.50;9.07;;;;;;;10.06;51.04;99282.41;1468628;88;21536;-85
2023/03/08 10:16:21;;;;;;;12.23;7.72;;;;;;;10.09;48.86;99280.74;1471818;88;21487;-84
2023/03/08 10:19:31;;;;;;;12.23;8.30;;;;;;;10.09;49.58;99285.22;1476961;88;22365;-84
2023/03/08 10:22:02;;;;;;;12.53;8.83;;;;;;;10.19;49.37;99273.12;1437053;91;21304;-84
2023/03/08 10:24:43;;;;;;;;;;;;;;;10.35;49.73;99275.69;1396141;91;21341;-84
2023/03/08 10:27:20;;;;;;;13.25;8.33;;;;;;;10.47;47.45;99273.47;1368427;91;20249;-85
2023/03/08 10:29:49;;;;;;;10.30;6.40;;;;;;;10.65;46.49;99267.41;1520235;91;21371;-85
2023/03/08 10:32:15;;;;;;;13.33;7.40;;;;;;;11.06;46.27;99269.23;1481278;91;21386;-84
2023/03/08 10:34:41;;;;;;;10.80;7.93;;;;;;;11.10;44.69;99266.22;1372269;91;21371;-86
2023/03/08 10:37:08;;;;;;;10.70;7.37;;;;;;;11.13;45.05;99268.50;1380580;91;21430;-84
2023/03/08 10:39:39;;;;;;;10.73;6.83;;;;;;;11.39;44.85;99272.06;1348826;92;22332;-85
2023/03/08 10:42:15;;;;;;;9.57;6.83;;;;;;;11.65;44.38;99268.50;1466739;91;21617;-86
2023/03/08 10:44:46;;;;;;;11.50;6.50;;;;;;;12.13;43.37;99270.76;1438620;91;21666;-84
2023/03/08 10:47:29;;;;;;;;;;;;;;;12.60;43.58;99275.59;1437215;91;21650;-84
2023/03/08 10:50:16;;;;;;;11.57;7.10;;;;;;;12.90;41.51;99278.11;1440733;91;20308;-86
2023/03/08 10:52:45;;;;;;;9.90;6.80;;;;;;;13.10;40.81;99287.06;1436956;91;22353;-85
2023/03/08 10:55:16;;;;;;;11.53;7.90;;;;;;;13.03;40.36;99278.23;1435965;91;21370;-83
2023/03/08 10:57:54;;;;;;;11.47;6.73;;;;;;;13.14;40.37;99281.37;1458295;88;21530;-85
2023/03/08 11:00:28;;;;;;;14.00;7.87;;;;;;;13.09;39.72;99275.32;1474155;88;22418;-84
2023/03/08 11:03:20;;;;;;;10.43;7.33;;;;;;;13.23;40.60;99269.58;1477341;88;21604;-84
2023/03/08 11:05:57;;;;;;;13.63;6.97;;;;;;;13.12;38.75;99270.10;1478185;88;21486;-84
2023/03/08 11:08:35;;;;;;;13.20;8.07;;;;;;;13.09;38.58;99262.86;1477044;88;21360;-84
2023/03/08 11:11:10;;;;;;;11.47;9.03;;;;;;;13.15;39.15;99245.80;1477146;88;21428;-85
2023/03/08 11:13:40;;;;;;;11.57;7.47;;;;;;;13.41;40.67;99255.86;1477346;88;21435;-86
2023/03/08 11:16:31;;;;;;;9.55;6.85;;;;;;;13.42;39.51;99253.00;1474428;88;21678;-84
2023/03/08 11:19:42;;;;;;;13.93;8.50;;;;;;;13.12;38.15;99256.82;1475875;88;21435;-85
2023/03/08 11:22:49;;;;;;;12.27;7.17;;;;;;;13.16;39.91;99266.88;1477264;88;22507;-84
2023/03/08 11:25:45;;;;;;;11.77;7.93;;;;;;;13.33;39.70;99266.12;1477626;88;21442;-85
2023/03/08 11:28:29;;;;;;;11.60;8.07;;;;;;;13.53;39.69;99267.08;1475133;88;21420;-84
2023/03/08 11:31:11;;;;;;;14.17;9.13;;;;;;;13.25;40.13;99265.75;1474015;88;21718;-84
2023/03/08 11:34:13;;;;;;;11.37;8.17;;;;;;;13.28;41.00;99265.88;1476405;88;21368;-85
2023/03/08 11:37:11;;;;;;;14.50;8.77;;;;;;;13.21;40.45;99257.83;1477256;88;21554;-83
2023/03/08 11:39:43;;;;;;;12.53;8.50;;;;;;;13.09;41.42;99253.56;1479312;88;21368;-85